createdAt,value
2022-12-02T00:01:41.534Z,101369.63
2022-12-02T00:04:28.877Z,101368.66
2022-12-02T00:06:59.095Z,101365.22
2022-12-02T00:09:35.036Z,101362.53
2022-12-02T00:12:20.590Z,101361.69
2022-12-02T00:14:54.506Z,101358.16
2022-12-02T00:17:22.085Z,101367.91
2022-12-02T00:19:49.399Z,101358.16
2022-12-02T00:22:16.728Z,101364.38
2022-12-02T00:24:44.283Z,101362.66
2022-12-02T00:27:12.066Z,101357.31
2022-12-02T00:29:39.371Z,101359.13
2022-12-02T00:32:07.141Z,101367.19
2022-12-02T00:34:34.637Z,101361.81
2022-12-02T00:37:01.957Z,101363.63
2022-12-02T00:39:29.391Z,101363.63
2022-12-02T00:41:56.702Z,101365.44
2022-12-02T00:44:42.612Z,101357.41
2022-12-02T00:47:09.872Z,101352.03
2022-12-02T00:49:37.067Z,101350.31
2022-12-02T00:52:04.643Z,101346.66
2022-12-02T00:54:31.926Z,101345.81
2022-12-02T00:57:00.022Z,101349.34
2022-12-02T00:59:27.627Z,101346.66
2022-12-02T01:01:54.966Z,101344.09
2022-12-02T01:04:22.189Z,101346.78
2022-12-02T01:06:49.462Z,101348.63
2022-12-02T01:09:16.870Z,101350.47
2022-12-02T01:11:44.217Z,101353.00
2022-12-02T01:14:11.581Z,101357.66
2022-12-02T01:16:41.181Z,101358.38
2022-12-02T01:19:08.580Z,101358.50
2022-12-02T01:21:35.853Z,101355.84
2022-12-02T01:24:03.265Z,101359.38
2022-12-02T01:26:31.981Z,101367.41
2022-12-02T01:28:59.284Z,101363.88
2022-12-02T01:31:26.880Z,101361.19
2022-12-02T01:33:54.225Z,101368.41
2022-12-02T01:36:21.518Z,101365.72
2022-12-02T01:38:48.786Z,101369.25
2022-12-02T01:41:16.159Z,101368.41
2022-12-02T01:43:43.691Z,101359.47
2022-12-02T01:46:11.598Z,101358.63
2022-12-02T01:48:39.091Z,101369.34
2022-12-02T01:51:07.291Z,101367.53
2022-12-02T01:53:35.680Z,101364.97
2022-12-02T01:56:03.214Z,101369.34
2022-12-02T01:58:33.047Z,101361.28
2022-12-02T02:01:00.519Z,101364.97
2022-12-02T02:03:28.053Z,101373.03
2022-12-02T02:05:55.649Z,101370.34
2022-12-02T02:08:23.507Z,101372.16
2022-12-02T02:10:51.088Z,101365.94
2022-12-02T02:13:18.540Z,101368.50
2022-12-02T02:15:46.734Z,101367.66
2022-12-02T02:18:16.493Z,101365.94
2022-12-02T02:20:43.847Z,101359.72
2022-12-02T02:23:16.915Z,101362.41
2022-12-02T02:25:46.228Z,101371.31
2022-12-02T02:28:15.860Z,101371.31
2022-12-02T02:30:44.297Z,101367.78
2022-12-02T02:33:14.560Z,101365.94
2022-12-02T02:35:43.981Z,101358.00
2022-12-02T02:38:15.486Z,101352.63
2022-12-02T02:40:45.432Z,101361.56
2022-12-02T02:43:14.947Z,101349.94
2022-12-02T02:45:44.311Z,101346.41
2022-12-02T02:48:14.213Z,101355.31
2022-12-02T02:50:44.522Z,101355.31
2022-12-02T02:53:16.030Z,101358.13
2022-12-02T02:55:44.063Z,101357.13
2022-12-02T02:58:18.749Z,101347.25
2022-12-02T03:00:52.917Z,101349.94
2022-12-02T03:03:22.932Z,101345.56
2022-12-02T03:05:53.365Z,101346.41
2022-12-02T03:08:23.818Z,101348.25
2022-12-02T03:10:54.269Z,101342.00
2022-12-02T03:13:21.942Z,101344.56
2022-12-02T03:15:49.819Z,101348.25
2022-12-02T03:18:17.482Z,101347.38
2022-12-02T03:20:44.868Z,101343.84
2022-12-02T03:23:12.284Z,101343.84
2022-12-02T03:25:39.561Z,101343.84
2022-12-02T03:28:07.165Z,101340.31
2022-12-02T03:30:34.712Z,101336.78
2022-12-02T03:33:02.116Z,101334.94
2022-12-02T03:35:29.537Z,101329.56
2022-12-02T03:37:56.822Z,101340.31
2022-12-02T03:40:24.491Z,101332.25
2022-12-02T03:42:52.050Z,101336.78
2022-12-02T03:45:19.863Z,101333.25
2022-12-02T03:47:47.248Z,101338.63
2022-12-02T03:50:15.137Z,101335.94
2022-12-02T03:52:42.410Z,101337.72
2022-12-02T03:55:10.724Z,101330.56
2022-12-02T03:57:40.542Z,101335.03
2022-12-02T04:00:15.656Z,101330.66
2022-12-02T04:02:44.160Z,101327.00
2022-12-02T04:05:11.576Z,101330.66
2022-12-02T04:07:38.939Z,101329.81
2022-12-02T04:10:07.143Z,101331.50
2022-12-02T04:12:34.499Z,101321.63
2022-12-02T04:15:01.725Z,101325.19
2022-12-02T04:17:29.059Z,101328.72
2022-12-02T04:19:56.353Z,101320.66
2022-12-02T04:22:23.696Z,101311.75
2022-12-02T04:24:51.425Z,101318.94
2022-12-02T04:27:18.860Z,101329.56
2022-12-02T04:29:46.100Z,101321.53
2022-12-02T04:32:13.305Z,101316.25
2022-12-02T04:34:40.524Z,101312.63
2022-12-02T04:37:07.762Z,101309.94
2022-12-02T04:39:34.986Z,101310.88
2022-12-02T04:42:02.281Z,101312.63
2022-12-02T04:44:29.584Z,101310.88
2022-12-02T04:46:56.921Z,101315.41
2022-12-02T04:49:24.259Z,101318.09
2022-12-02T04:51:51.557Z,101318.09
2022-12-02T04:54:18.815Z,101317.25
2022-12-02T04:56:46.149Z,101313.69
2022-12-02T04:59:13.409Z,101326.13
2022-12-02T05:01:40.791Z,101323.59
2022-12-02T05:04:08.068Z,101324.44
2022-12-02T05:06:35.347Z,101325.28
2022-12-02T05:09:02.577Z,101326.28
2022-12-02T05:11:34.761Z,101326.28
2022-12-02T05:14:03.651Z,101326.28
2022-12-02T05:16:30.999Z,101324.56
2022-12-02T05:18:58.361Z,101324.44
2022-12-02T05:21:25.600Z,101321.88
2022-12-02T05:23:52.879Z,101319.19
2022-12-02T05:26:20.241Z,101313.94
2022-12-02T05:28:47.526Z,101313.94
2022-12-02T05:31:14.906Z,101313.94
2022-12-02T05:33:42.318Z,101314.78
2022-12-02T05:36:12.915Z,101325.53
2022-12-02T05:38:40.683Z,101331.78
2022-12-02T05:41:09.383Z,101323.81
2022-12-02T05:43:41.880Z,101326.41
2022-12-02T05:46:20.333Z,101324.66
2022-12-02T05:48:49.963Z,101331.78
2022-12-02T05:51:20.530Z,101335.41
2022-12-02T05:53:50.499Z,101329.09
2022-12-02T05:56:28.650Z,101337.13
2022-12-02T05:59:02.367Z,101339.91
2022-12-02T06:01:36.667Z,101341.63
2022-12-02T06:04:05.938Z,101340.78
2022-12-02T06:06:36.199Z,101340.78
2022-12-02T06:09:11.511Z,101346.16
2022-12-02T06:11:39.043Z,101342.59
2022-12-02T06:14:16.682Z,101345.28
2022-12-02T06:16:54.004Z,101339.91
2022-12-02T06:19:35.773Z,101347.97
2022-12-02T06:22:12.006Z,101339.91
2022-12-02T06:24:39.363Z,101346.16
2022-12-02T06:27:06.644Z,101333.69
2022-12-02T06:29:35.474Z,101345.28
2022-12-02T06:32:02.847Z,101342.75
2022-12-02T06:34:41.140Z,101350.66
2022-12-02T06:37:21.802Z,101340.06
2022-12-02T06:40:26.387Z,101332.84
2022-12-02T06:42:43.082Z,101329.31
2022-12-02T06:45:29.877Z,101339.19
2022-12-02T06:48:01.409Z,101340.06
2022-12-02T06:50:38.951Z,101340.06
2022-12-02T06:53:39.505Z,101336.63
2022-12-02T06:56:29.913Z,101341.88
2022-12-02T06:59:05.683Z,101337.38
2022-12-02T07:01:38.885Z,101337.38
2022-12-02T07:04:09.391Z,101341.75
2022-12-02T07:06:56.495Z,101340.78
2022-12-02T07:09:37.176Z,101339.91
2022-12-02T07:12:12.835Z,101338.22
2022-12-02T07:14:48.276Z,101337.25
2022-12-02T07:17:41.806Z,101347.13
2022-12-02T07:20:11.679Z,101340.06
2022-12-02T07:22:49.484Z,101349.81
2022-12-02T07:25:28.391Z,101353.34
2022-12-02T07:27:55.881Z,101344.50
2022-12-02T07:30:31.337Z,101347.13
2022-12-02T07:32:59.988Z,101349.94
2022-12-02T07:35:28.188Z,101353.09
2022-12-02T07:37:55.608Z,101357.88
2022-12-02T07:40:22.937Z,101353.97
2022-12-02T07:42:50.365Z,101355.47
2022-12-02T07:45:19.577Z,101360.94
2022-12-02T07:47:48.579Z,101355.78
2022-12-02T07:50:17.096Z,101361.69
2022-12-02T07:52:44.364Z,101359.31
2022-12-02T07:55:11.798Z,101356.06
2022-12-02T07:57:39.280Z,101352.81
2022-12-02T08:00:07.996Z,101352.16
2022-12-02T08:02:41.110Z,101360.72
2022-12-02T08:05:08.817Z,101356.63
2022-12-02T08:07:36.481Z,101346.53
2022-12-02T08:10:04.978Z,101342.63
2022-12-02T08:12:32.680Z,101347.75
2022-12-02T08:15:00.112Z,101343.03
2022-12-02T08:17:27.357Z,101349.16
2022-12-02T08:19:54.632Z,101363.22
2022-12-02T08:22:21.893Z,101372.81
2022-12-02T08:24:49.369Z,101375.50
2022-12-02T08:27:16.942Z,101369.06
2022-12-02T08:29:44.211Z,101374.44
2022-12-02T08:32:11.599Z,101368.09
2022-12-02T08:34:38.862Z,101376.00
2022-12-02T08:37:06.152Z,101378.59
2022-12-02T08:39:33.484Z,101378.59
2022-12-02T08:42:00.734Z,101378.47
2022-12-02T08:44:27.976Z,101370.44
2022-12-02T08:46:55.326Z,101378.38
2022-12-02T08:49:23.247Z,101381.06
2022-12-02T08:51:50.616Z,101387.28
2022-12-02T08:54:18.106Z,101387.28
2022-12-02T08:56:46.586Z,101390.81
2022-12-02T08:59:13.942Z,101388.97
2022-12-02T09:01:41.276Z,101397.88
2022-12-02T09:04:08.573Z,101391.66
2022-12-02T09:06:36.331Z,101393.38
2022-12-02T09:09:06.002Z,101393.38
2022-12-02T09:11:33.936Z,101399.50
2022-12-02T09:14:01.746Z,101401.31
2022-12-02T09:16:29.227Z,101399.50
2022-12-02T09:18:57.805Z,101395.06
2022-12-02T09:21:25.126Z,101392.38
2022-12-02T09:23:52.357Z,101397.75
2022-12-02T09:26:20.382Z,101401.31
2022-12-02T09:28:47.717Z,101400.44
2022-12-02T09:31:15.241Z,101396.81
2022-12-02T09:33:42.658Z,101401.31
2022-12-02T09:36:09.929Z,101396.81
2022-12-02T09:38:37.631Z,101400.44
2022-12-02T09:41:05.267Z,101406.69
2022-12-02T09:43:33.782Z,101400.44
2022-12-02T09:46:01.746Z,101399.50
2022-12-02T09:48:29.456Z,101406.69
2022-12-02T09:50:58.674Z,101401.31
2022-12-02T09:53:44.177Z,101399.59
2022-12-02T09:56:19.612Z,101395.94
2022-12-02T09:58:49.557Z,101398.63
2022-12-02T10:01:17.324Z,101388.75
2022-12-02T10:03:46.313Z,101388.75
2022-12-02T10:06:19.167Z,101394.13
2022-12-02T10:08:47.043Z,101387.91
2022-12-02T10:11:27.499Z,101385.22
2022-12-02T10:13:56.910Z,101387.03
2022-12-02T10:16:26.042Z,101386.94
2022-12-02T10:19:00.954Z,101380.72
2022-12-02T10:21:28.177Z,101371.81
2022-12-02T10:23:59.216Z,101378.03
2022-12-02T10:26:27.390Z,101375.34
2022-12-02T10:29:02.909Z,101364.63
2022-12-02T10:31:30.492Z,101363.75
2022-12-02T10:34:00.410Z,101365.47
2022-12-02T10:36:42.386Z,101360.94
2022-12-02T10:39:31.404Z,101359.25
2022-12-02T10:42:08.885Z,101357.41
2022-12-02T10:44:39.473Z,101366.31
2022-12-02T10:47:26.472Z,101345.69
2022-12-02T10:49:59.503Z,101356.44
2022-12-02T10:52:31.858Z,101348.38
2022-12-02T10:55:00.085Z,101345.69
2022-12-02T10:57:30.737Z,101351.91
2022-12-02T11:00:02.932Z,101344.84
2022-12-02T11:02:36.011Z,101342.16
2022-12-02T11:05:14.815Z,101345.69
2022-12-02T11:07:58.906Z,101345.69
2022-12-02T11:10:39.737Z,101343.03
2022-12-02T11:13:31.528Z,101339.47
2022-12-02T11:16:27.734Z,101338.50
2022-12-02T11:19:08.892Z,101335.81
2022-12-02T11:21:39.185Z,101334.97
2022-12-02T11:24:24.696Z,101331.31
2022-12-02T11:27:03.979Z,101334.00
2022-12-02T11:29:31.205Z,101327.78
2022-12-02T11:32:26.319Z,101336.66
2022-12-02T11:35:16.431Z,101331.31
2022-12-02T11:37:45.768Z,101338.41
2022-12-02T11:40:14.272Z,101329.50
2022-12-02T11:42:43.877Z,101328.63
2022-12-02T11:45:17.112Z,101326.81
2022-12-02T11:47:58.692Z,101317.03
2022-12-02T11:50:32.100Z,101321.47
2022-12-02T11:53:11.005Z,101321.47
2022-12-02T11:55:43.883Z,101321.47
2022-12-02T11:58:17.515Z,101315.22
2022-12-02T12:01:06.520Z,101316.09
2022-12-02T12:03:35.069Z,101317.78
2022-12-02T12:06:11.510Z,101314.25
2022-12-02T12:08:45.971Z,101307.16
2022-12-02T12:11:35.176Z,101310.72
2022-12-02T12:14:11.394Z,101312.44
2022-12-02T12:16:42.555Z,101312.44
2022-12-02T12:19:12.845Z,101312.44
2022-12-02T12:21:47.280Z,101307.06
2022-12-02T12:24:22.382Z,101315.09
2022-12-02T12:27:02.726Z,101312.44
2022-12-02T12:29:35.122Z,101317.78
2022-12-02T12:32:02.768Z,101315.97
2022-12-02T12:34:30.883Z,101312.44
2022-12-02T12:36:58.912Z,101315.09
2022-12-02T12:39:26.521Z,101312.44
2022-12-02T12:42:01.977Z,101312.44
2022-12-02T12:44:31.969Z,101307.91
2022-12-02T12:47:03.600Z,101310.59
2022-12-02T12:49:32.430Z,101311.44
2022-12-02T12:52:00.584Z,101307.06
2022-12-02T12:54:27.907Z,101302.53
2022-12-02T12:56:55.288Z,101308.75
2022-12-02T12:59:22.654Z,101299.88
2022-12-02T13:01:50.152Z,101306.94
2022-12-02T13:04:17.534Z,101306.06
2022-12-02T13:06:46.948Z,101297.03
2022-12-02T13:09:15.444Z,101299.88
2022-12-02T13:11:43.403Z,101299.88
2022-12-02T13:14:10.754Z,101294.50
2022-12-02T13:16:38.186Z,101290.97
2022-12-02T13:19:06.168Z,101292.66
2022-12-02T13:21:33.912Z,101287.28
2022-12-02T13:24:03.201Z,101298.88
2022-12-02T13:26:30.442Z,101293.50
2022-12-02T13:28:57.770Z,101288.16
2022-12-02T13:31:25.081Z,101292.66
2022-12-02T13:33:52.315Z,101291.69
2022-12-02T13:36:19.599Z,101289.84
2022-12-02T13:38:46.876Z,101283.63
2022-12-02T13:41:14.206Z,101289.84
2022-12-02T13:43:41.540Z,101288.16
2022-12-02T13:46:09.001Z,101289.97
2022-12-02T13:48:36.365Z,101290.72
2022-12-02T13:51:04.243Z,101284.47
2022-12-02T13:53:31.605Z,101288.06
2022-12-02T13:55:58.913Z,101289.00
2022-12-02T13:58:26.225Z,101289.00
2022-12-02T14:00:53.460Z,101291.59
2022-12-02T14:03:20.927Z,101284.63
2022-12-02T14:05:48.193Z,101285.47
2022-12-02T14:08:15.569Z,101290.84
2022-12-02T14:10:42.849Z,101282.78
2022-12-02T14:13:15.860Z,101294.38
2022-12-02T14:15:45.744Z,101293.50
2022-12-02T14:18:13.916Z,101289.97
2022-12-02T14:20:41.263Z,101291.69
2022-12-02T14:23:08.734Z,101291.69
2022-12-02T14:25:36.124Z,101284.63
2022-12-02T14:28:04.047Z,101290.84
2022-12-02T14:30:31.291Z,101284.63
2022-12-02T14:32:58.604Z,101291.69
2022-12-02T14:35:26.108Z,101284.75
2022-12-02T14:37:53.382Z,101298.88
2022-12-02T14:40:20.699Z,101296.19
2022-12-02T14:42:48.017Z,101298.88
2022-12-02T14:45:15.429Z,101298.03
2022-12-02T14:47:42.676Z,101298.88
2022-12-02T14:50:10.201Z,101297.03
2022-12-02T14:52:37.851Z,101292.66
2022-12-02T14:55:05.636Z,101293.66
2022-12-02T14:57:32.891Z,101295.34
2022-12-02T15:00:00.335Z,101299.72
2022-12-02T15:02:27.760Z,101295.34
2022-12-02T15:04:55.222Z,101305.09
2022-12-02T15:07:22.765Z,101298.88
2022-12-02T15:09:50.101Z,101303.41
2022-12-02T15:12:17.351Z,101298.88
2022-12-02T15:14:44.620Z,101304.25
2022-12-02T15:17:11.974Z,101293.50
2022-12-02T15:19:39.343Z,101303.41
2022-12-02T15:22:06.548Z,101298.88
2022-12-02T15:24:33.948Z,101300.72
2022-12-02T15:27:02.342Z,101305.09
2022-12-02T15:29:30.080Z,101298.88
2022-12-02T15:31:57.442Z,101303.25
2022-12-02T15:34:25.012Z,101305.09
2022-12-02T15:36:52.239Z,101300.59
2022-12-02T15:39:19.556Z,101305.09
2022-12-02T15:41:46.877Z,101305.94
2022-12-02T15:44:14.158Z,101309.53
2022-12-02T15:46:41.986Z,101307.78
2022-12-02T15:49:09.434Z,101314.00
2022-12-02T15:51:36.745Z,101312.28
2022-12-02T15:54:04.187Z,101316.69
2022-12-02T15:56:34.358Z,101321.19
2022-12-02T15:59:02.160Z,101317.66
2022-12-02T16:01:29.765Z,101334.50
2022-12-02T16:03:57.185Z,101332.78
2022-12-02T16:06:24.441Z,101333.66
2022-12-02T16:08:55.473Z,101338.06
2022-12-02T16:11:23.476Z,101335.38
2022-12-02T16:13:52.727Z,101341.59
2022-12-02T16:16:20.603Z,101341.59
2022-12-02T16:18:49.621Z,101342.44
2022-12-02T16:21:18.467Z,101337.06
2022-12-02T16:23:45.798Z,101337.91
2022-12-02T16:26:13.051Z,101330.00
2022-12-02T16:28:42.878Z,101332.69
2022-12-02T16:31:10.450Z,101330.84
2022-12-02T16:33:37.912Z,101333.53
2022-12-02T16:36:05.429Z,101335.25
2022-12-02T16:38:32.836Z,101337.06
2022-12-02T16:41:00.025Z,101330.84
2022-12-02T16:43:27.398Z,101331.69
2022-12-02T16:45:54.865Z,101333.41
2022-12-02T16:48:22.297Z,101329.03
2022-12-02T16:50:55.318Z,101335.38
2022-12-02T16:53:23.343Z,101335.25
2022-12-02T16:55:50.869Z,101338.91
2022-12-02T16:58:18.126Z,101338.06
2022-12-02T17:00:45.993Z,101353.16
2022-12-02T17:03:13.883Z,101347.81
2022-12-02T17:05:41.316Z,101356.72
2022-12-02T17:08:08.741Z,101353.16
2022-12-02T17:10:36.121Z,101355.84
2022-12-02T17:13:03.680Z,101366.59
2022-12-02T17:15:31.399Z,101362.19
2022-12-02T17:17:58.796Z,101362.19
2022-12-02T17:20:26.158Z,101356.84
2022-12-02T17:22:53.759Z,101354.16
2022-12-02T17:25:21.196Z,101352.44
2022-12-02T17:27:48.405Z,101354.16
2022-12-02T17:30:15.930Z,101353.31
2022-12-02T17:32:43.192Z,101355.97
2022-12-02T17:35:10.746Z,101350.63
2022-12-02T17:37:37.999Z,101349.75
2022-12-02T17:40:06.509Z,101356.84
2022-12-02T17:42:35.124Z,101361.34
2022-12-02T17:45:02.549Z,101361.34
2022-12-02T17:47:29.834Z,101365.75
2022-12-02T17:49:57.120Z,101362.19
2022-12-02T17:52:24.334Z,101370.25
2022-12-02T17:54:52.109Z,101372.09
2022-12-02T17:57:19.679Z,101371.22
2022-12-02T17:59:47.008Z,101373.91
2022-12-02T18:02:14.487Z,101370.34
2022-12-02T18:04:44.565Z,101370.25
2022-12-02T18:07:13.172Z,101369.41
2022-12-02T18:09:40.950Z,101371.22
2022-12-02T18:12:09.970Z,101368.53
2022-12-02T18:14:37.314Z,101376.59
2022-12-02T18:17:06.980Z,101366.72
2022-12-02T18:19:34.467Z,101365.75
2022-12-02T18:22:02.195Z,101374.63
2022-12-02T18:24:29.480Z,101366.59
2022-12-02T18:26:56.799Z,101365.59
2022-12-02T18:29:24.160Z,101361.22
2022-12-02T18:31:51.425Z,101360.38
2022-12-02T18:34:18.754Z,101370.13
2022-12-02T18:36:46.096Z,101361.22
2022-12-02T18:39:13.412Z,101359.38
2022-12-02T18:41:40.693Z,101361.09
2022-12-02T18:44:07.970Z,101356.59
2022-12-02T18:46:35.425Z,101361.00
2022-12-02T18:49:02.957Z,101350.25
2022-12-02T18:51:30.262Z,101356.34
2022-12-02T18:53:57.599Z,101351.84
2022-12-02T18:56:25.018Z,101350.97
2022-12-02T18:58:54.187Z,101350.03
2022-12-02T19:01:21.643Z,101350.97
2022-12-02T19:03:49.264Z,101350.97
2022-12-02T19:06:17.053Z,101347.44
2022-12-02T19:08:44.397Z,101344.75
2022-12-02T19:11:11.611Z,101343.06
2022-12-02T19:13:39.061Z,101336.72
2022-12-02T19:16:06.689Z,101343.06
2022-12-02T19:18:34.183Z,101348.44
2022-12-02T19:21:04.671Z,101347.44
2022-12-02T19:23:31.997Z,101347.56
2022-12-02T19:25:59.271Z,101348.44
2022-12-02T19:28:26.651Z,101349.28
2022-12-02T19:30:54.189Z,101350.13
2022-12-02T19:33:21.596Z,101346.72
2022-12-02T19:35:48.919Z,101350.13
2022-12-02T19:38:16.260Z,101352.09
2022-12-02T19:40:45.509Z,101352.94
2022-12-02T19:43:16.614Z,101352.09
2022-12-02T19:45:44.310Z,101355.63
2022-12-02T19:48:11.748Z,101354.66
2022-12-02T19:50:39.022Z,101348.28
2022-12-02T19:53:06.376Z,101357.19
2022-12-02T19:55:33.644Z,101359.88
2022-12-02T19:58:00.932Z,101359.78
2022-12-02T20:00:28.197Z,101359.78
2022-12-02T20:02:55.531Z,101364.03
2022-12-02T20:05:22.892Z,101361.25
2022-12-02T20:07:50.414Z,101359.44
2022-12-02T20:10:18.118Z,101353.94
2022-12-02T20:12:46.270Z,101348.56
2022-12-02T20:15:15.490Z,101351.16
2022-12-02T20:17:43.092Z,101358.22
2022-12-02T20:20:13.148Z,101360.91
2022-12-02T20:22:41.771Z,101363.47
2022-12-02T20:25:10.102Z,101357.13
2022-12-02T20:27:37.681Z,101358.00
2022-12-02T20:30:06.564Z,101359.69
2022-12-02T20:32:33.850Z,101366.75
2022-12-02T20:35:04.316Z,101366.66
2022-12-02T20:37:31.681Z,101371.06
2022-12-02T20:39:58.990Z,101374.59
2022-12-02T20:42:26.241Z,101364.69
2022-12-02T20:44:53.718Z,101366.41
2022-12-02T20:47:21.156Z,101370.81
2022-12-02T20:49:48.455Z,101363.63
2022-12-02T20:52:16.542Z,101363.50
2022-12-02T20:54:44.469Z,101367.03
2022-12-02T20:57:13.280Z,101369.72
2022-12-02T20:59:40.851Z,101369.63
2022-12-02T21:02:10.638Z,101367.78
2022-12-02T21:04:38.844Z,101365.81
2022-12-02T21:07:09.443Z,101364.97
2022-12-02T21:09:39.585Z,101372.03
2022-12-02T21:12:07.511Z,101369.25
2022-12-02T21:14:34.970Z,101375.47
2022-12-02T21:17:02.278Z,101366.31
2022-12-02T21:19:29.713Z,101373.50
2022-12-02T21:21:56.967Z,101368.13
2022-12-02T21:24:24.322Z,101365.34
2022-12-02T21:26:51.605Z,101369.88
2022-12-02T21:29:20.553Z,101367.91
2022-12-02T21:31:48.236Z,101365.22
2022-12-02T21:34:15.714Z,101361.56
2022-12-02T21:36:43.126Z,101362.41
2022-12-02T21:39:10.485Z,101365.09
2022-12-02T21:41:37.861Z,101371.22
2022-12-02T21:44:05.374Z,101372.06
2022-12-02T21:46:32.689Z,101365.72
2022-12-02T21:48:59.977Z,101371.94
2022-12-02T21:51:27.227Z,101373.78
2022-12-02T21:53:54.557Z,101385.38
2022-12-02T21:56:21.904Z,101387.94
2022-12-02T21:58:49.135Z,101389.78
2022-12-02T22:01:34.900Z,101390.63
2022-12-02T22:04:02.485Z,101392.34
2022-12-02T22:06:30.104Z,101380.75
2022-12-02T22:08:57.554Z,101383.28
2022-12-02T22:11:25.091Z,101393.09
2022-12-02T22:13:52.499Z,101385.88
2022-12-02T22:16:19.843Z,101381.38
2022-12-02T22:18:47.108Z,101381.38
2022-12-02T22:21:14.633Z,101388.44
2022-12-02T22:23:41.906Z,101376.72
2022-12-02T22:26:10.049Z,101380.16
2022-12-02T22:28:38.710Z,101369.41
2022-12-02T22:31:06.095Z,101364.03
2022-12-02T22:33:33.740Z,101371.97
2022-12-02T22:36:01.244Z,101367.44
2022-12-02T22:38:28.673Z,101369.28
2022-12-02T22:40:56.000Z,101366.59
2022-12-02T22:43:23.578Z,101367.44
2022-12-02T22:45:50.889Z,101360.38
2022-12-02T22:48:18.127Z,101357.69
2022-12-02T22:50:45.340Z,101360.25
2022-12-02T22:53:12.689Z,101357.69
2022-12-02T22:55:40.057Z,101356.69
2022-12-02T22:58:07.517Z,101366.53
2022-12-02T23:00:34.834Z,101361.16
2022-12-02T23:03:02.226Z,101368.22
2022-12-02T23:05:29.566Z,101361.16
2022-12-02T23:07:56.972Z,101359.31
2022-12-02T23:10:24.644Z,101359.31
2022-12-02T23:12:52.083Z,101361.16
2022-12-02T23:15:37.079Z,101355.63
2022-12-02T23:18:07.017Z,101354.78
2022-12-02T23:20:35.535Z,101358.31
2022-12-02T23:23:03.556Z,101353.94
2022-12-02T23:25:30.859Z,101363.69
2022-12-02T23:29:07.367Z,101352.09
2022-12-02T23:31:34.747Z,101351.25
2022-12-02T23:34:02.114Z,101346.72
2022-12-02T23:36:34.706Z,101345.03
2022-12-02T23:39:02.420Z,101337.88
2022-12-02T23:41:29.847Z,101337.88
2022-12-02T23:43:57.253Z,101343.41
2022-12-02T23:46:24.690Z,101340.72
2022-12-02T23:48:51.946Z,101339.84
2022-12-02T23:51:25.341Z,101334.50
2022-12-02T23:53:54.297Z,101337.19
2022-12-02T23:56:21.523Z,101343.41
2022-12-02T23:58:48.760Z,101344.38
